• Join FlightAware (Why Join?)
  • Login
  • US Flag 
12:14PM EST


 

Airport Tracker/Info


-or-


 

Live Flight TrackerFlight Track Log ✈ N403S ✈ 29-Aug-2013 ✈ KPDX - KMSO

Flight Track Log - Related Links

Times and Time Zones

All times are in EDT time to prevent confusion due to time zone crossing. See the N403S flight status page for this flight to view local times or setup timezone preferences in your user account.

Time Position Orientation Groundspeed Altitude Reporting Facility
EDT Latitude Longitude Course Direction KTS MPH feet Rate Location/Type
09:19PM 45.5975 -122.5933 351° North 105 121 500  Level Seattle Center
09:20PM 45.6269 -122.5997 351° North 115 132 1,300 780 Climbing Seattle Center
09:21PM 45.6611 -122.6075 351° North 126 145 2,100 780 Climbing Seattle Center
09:21PM 45.6878 -122.5997 12° North 134 154 2,800 840 Climbing Seattle Center
09:22PM 45.7058 -122.5614 56° Northeast 126 145 3,600 720 Climbing Seattle Center
09:24PM 45.7031 -122.5047 94° East 114 131 4,500 660 Climbing Seattle Center
09:25PM 45.6975 -122.4528 99° East 125 144 5,300 900 Climbing Seattle Center
09:25PM 45.6931 -122.4119 99° East 129 148 6,000 780 Climbing Seattle Center
09:27PM 45.6869 -122.3494 98° East 134 154 6,800 720 Climbing Seattle Center
09:28PM 45.6850 -122.2978 93° East 130 150 7,600 600 Climbing Seattle Center
09:29PM 45.6933 -122.2322 80° East 164 189 8,200 540 Climbing Seattle Center
09:30PM 45.7017 -122.1669 80° East 162 186 8,800 540 Climbing Seattle Center
09:31PM 45.7119 -122.0983 78° East 165 190 9,400 540 Climbing Seattle Center
09:32PM 45.7236 -122.0336 76° East 168 193 10,000 540 Climbing Seattle Center
09:33PM 45.7364 -121.9678 74° East 171 197 10,600 540 Climbing Seattle Center
09:34PM 45.7514 -121.8939 74° East 172 198 11,200 480 Climbing Seattle Center
09:35PM 45.7647 -121.8264 74° East 176 203 11,600 480 Climbing Seattle Center
09:36PM 45.7778 -121.7564 75° East 180 207 12,200 480 Climbing Seattle Center
09:37PM 45.7911 -121.6919 73° East 172 198 12,600 600 Climbing Seattle Center
09:38PM 45.8064 -121.6314 70° East 164 189 13,500 540 Climbing Seattle Center
09:39PM 45.8208 -121.5731 70° East 157 181 13,800 240 Climbing Seattle Center
09:40PM 45.8364 -121.5153 69° East 157 181 14,100 420 Climbing Seattle Center
09:41PM 45.8494 -121.4536 73° East 162 186 14,700 480 Climbing Seattle Center
09:42PM 45.8606 -121.3906 76° East 162 186 15,100 360 Climbing Seattle Center
09:43PM 45.8731 -121.3225 75° East 174 200 15,500 420 Climbing Seattle Center
09:44PM 45.8864 -121.2447 76° East 170 196 16,000 480 Climbing Seattle Center
09:45PM 45.8978 -121.1781 76° East 172 198 16,600 480 Climbing Seattle Center
09:46PM 45.9094 -121.1131 76° East 170 196 17,000 120 Climbing Seattle Center
09:47PM 45.9197 -121.0397 79° East 181 208 16,900 -60 Descending Seattle Center
09:48PM 45.9308 -120.9658 78° East 187 215 16,900 120 Level Seattle Center
09:49PM 45.9442 -120.8933 75° East 188 216 17,200 240 Climbing Seattle Center
09:50PM 45.9581 -120.8317 72° East 170 196 17,500 180 Climbing Seattle Center
09:51PM 45.9700 -120.7603 76° East 180 207 17,600 240 Climbing Seattle Center
09:52PM 45.9794 -120.6867 80° East 186 214 18,100 360 Climbing Seattle Center
09:53PM 45.9897 -120.6131 79° East 188 216 18,400 300 Climbing Seattle Center
09:54PM 45.9989 -120.5375 80° East 191 220 18,800 240 Climbing Seattle Center
09:55PM 46.0167 -120.4494 74° East 190 219 18,900  Climbing Seattle Center
09:56PM 46.0297 -120.3669 77° East 206 237 18,900  Level Seattle Center
09:57PM 46.0442 -120.2856 76° East 209 241 18,900  Level Seattle Center
09:58PM 46.0567 -120.2017 78° East 213 245 18,900  Level Seattle Center
09:59PM 46.0711 -120.1214 75° East 209 241 18,900  Level Seattle Center
10:00PM 46.0864 -120.0378 75° East 215 247 19,000  Climbing Seattle Center
10:01PM 46.1044 -119.9536 73° East 219 252 19,000 -60 Level Seattle Center
10:02PM 46.1200 -119.8728 74° East 213 245 18,900 -60 Descending Seattle Center
10:03PM 46.1369 -119.7897 74° East 214 246 18,900  Level Seattle Center
10:04PM 46.1506 -119.7036 77° East 218 251 18,900  Level Seattle Center
10:06PM 46.1661 -119.6211 75° East 215 247 19,000  Climbing Seattle Center
10:07PM 46.1817 -119.5175 78° East 219 252 18,900  Descending Seattle Center
10:08PM 46.1967 -119.4381 75° East 209 241 19,000  Climbing Seattle Center
10:09PM 46.2092 -119.3542 78° East 211 243 18,900  Descending Seattle Center
10:10PM 46.2219 -119.2728 77° East 209 241 19,000  Climbing Seattle Center
10:11PM 46.2328 -119.1906 79° East 208 239 18,900 -60 Descending Seattle Center
10:12PM 46.2419 -119.1081 81° East 208 239 18,900  Level Seattle Center
10:13PM 46.2528 -119.0272 79° East 208 239 18,900  Level Seattle Center
10:14PM 46.2631 -118.9453 80° East 207 238 18,900  Level Seattle Center
10:15PM 46.2733 -118.8675 79° East 208 239 19,000  Climbing Seattle Center
10:16PM 46.2911 -118.7708 75° East 209 241 18,900 -60 Descending Seattle Center
10:17PM 46.3050 -118.6894 76° East 209 241 18,900  Level Seattle Center
10:18PM 46.3186 -118.6075 76° East 211 243 18,900  Level Seattle Center
10:19PM 46.3333 -118.5261 75° East 211 243 18,900  Level Seattle Center
10:20PM 46.3486 -118.4439 75° East 213 245 18,900  Level Seattle Center
10:21PM 46.3656 -118.3661 72° East 208 239 18,900  Level Seattle Center
10:22PM 46.3794 -118.2828 76° East 210 242 18,900  Level Seattle Center
10:23PM 46.3900 -118.2000 79° East 210 242 19,000  Climbing Seattle Center
10:24PM 46.4006 -118.1175 79° East 210 242 18,900 -60 Descending Seattle Center
10:25PM 46.4114 -118.0364 79° East 208 239 18,900  Level Seattle Center
10:26PM 46.4214 -117.9531 80° East 208 239 18,900  Level Seattle Center
10:27PM 46.4339 -117.8533 80° East 211 243 18,900  Level Seattle Center
10:28PM 46.4450 -117.7706 79° East 210 242 19,000  Climbing Seattle Center
10:29PM 46.4533 -117.6853 82° East 213 245 18,900 -60 Descending Seattle Center
10:30PM 46.4642 -117.6014 79° East 213 245 18,900  Level Seattle Center
10:31PM 46.4781 -117.5142 77° East 220 253 18,900  Level Seattle Center
10:32PM 46.4928 -117.4289 76° East 220 253 19,000  Climbing Seattle Center
10:33PM 46.5072 -117.3458 76° East 217 250 18,900 -60 Descending Seattle Center
10:34PM 46.5203 -117.2608 77° East 218 251 18,900  Level Seattle Center
10:35PM 46.5339 -117.1783 76° East 213 245 19,000  Climbing Seattle Center
10:36PM 46.5469 -117.0919 78° East 218 251 18,900  Descending Seattle Center
10:37PM 46.5606 -117.0050 77° East 221 254 19,000  Climbing Seattle Center
10:38PM 46.5747 -116.9158 77° East 225 259 18,900  Descending Seattle Center
10:39PM 46.5931 -116.8142 75° East 221 254 19,000 -300 Climbing Seattle Center
10:40PM 46.6072 -116.7217 77° East 228 262 18,400 -540 Descending Seattle Center
10:41PM 46.6203 -116.6267 79° East 237 273 18,000 -420 Descending Seattle Center
10:42PM 46.6347 -116.5353 77° East 235 270 17,600 -540 Descending Seattle Center
10:43PM 46.6467 -116.4389 80° East 241 277 17,000 -600 Descending Seattle Center
10:44PM 46.6581 -116.3472 80° East 236 272 16,400 -600 Descending Seattle Center
10:45PM 46.6697 -116.2561 79° East 231 266 15,800 -600 Descending Seattle Center
10:46PM 46.6800 -116.1667 80° East 227 261 15,200 -600 Descending Seattle Center
10:47PM 46.6903 -116.0800 80° East 221 254 14,700 -600 Descending Seattle Center
10:48PM 46.6989 -115.9964 81° East 214 246 14,100 -600 Descending Seattle Center
10:49PM 46.7075 -115.9094 82° East 214 246 13,600 -600 Descending Seattle Center
10:50PM 46.7178 -115.8075 82° East 214 246 12,900 -300 Descending Seattle Center
10:51PM 46.7286 -115.7275 79° East 206 237 13,000  Climbing Seattle Center
10:52PM 46.7358 -115.6514 82° East 197 227 13,000  Level Seattle Center
10:53PM 46.7431 -115.5756 82° East 191 220 13,000  Level Seattle Center
10:54PM 46.7494 -115.5006 83° East 188 216 13,000  Level Seattle Center
10:55PM 46.7564 -115.4222 83° East 191 220 13,000  Level Seattle Center
10:56PM 46.7661 -115.3425 80° East 193 222 13,000  Level Seattle Center
10:57PM 46.7764 -115.2667 79° East 191 220 13,000 -60 Level Seattle Center
10:58PM 46.7881 -115.1900 77° East 193 222 12,900 -480 Descending Seattle Center
10:59PM 46.7981 -115.1058 80° East 206 237 12,100 -720 Descending Seattle Center
11:00PM 46.8056 -115.0519 78° East 215 247 11,800 -480 Descending Salt Lake Center
11:01PM 46.8178 -114.9667 78° East 217 250 11,400 -420 Descending Salt Lake Center
11:02PM 46.8300 -114.8825 78° East 214 246 11,000 -540 Descending Salt Lake Center
11:03PM 46.8442 -114.7819 78° East 212 244 10,400 -540 Descending Salt Lake Center
11:04PM 46.8517 -114.7000 82° East 209 241 10,000 -300 Descending Salt Lake Center
11:05PM 46.8592 -114.6219 82° East 204 235 9,900  Descending Salt Lake Center
11:06PM 46.8672 -114.5403 82° East 191 220 10,000  Climbing Salt Lake Center
11:07PM 46.8736 -114.4686 83° East 181 208 10,000  Level Salt Lake Center
11:08PM 46.8636 -114.3994 102° East 176 203 10,000  Level Salt Lake Center
11:09PM 46.8472 -114.3256 108° East 178 205 10,000  Level Salt Lake Center
11:10PM 46.8306 -114.2572 110° East 180 207 10,000 -300 Level Salt Lake Center
11:11PM 46.8106 -114.1808 111° Southeast 190 219 9,400 -600 Descending Salt Lake Center
11:12PM 46.8133 -114.1033 87° East 197 227 8,800 -1,080 Descending Salt Lake Center
11:13PM 46.8247 -114.0272 78° East 195 224 7,300 -2,040 Descending Salt Lake Center
11:14PM 46.8692 -114.0106 14° North 180 207 4,700 -1,860 Descending Salt Lake Center
11:15PM 46.8975 -114.0600 310° West 160 184 3,600 -780 Descending Salt Lake Center
11:16PM 46.9139 -114.0881 311° West 94 108 3,200 -420 Descending Salt Lake Center